sensor_id;sensor_type;location;lat;lon;timestamp;P1;durP1;ratioP1;P2;durP2;ratioP2
54909;SDS011;63189;51.240;9.964;2022-09-09T00:05:32;3.25;;;1.35;;
54909;SDS011;63189;51.240;9.964;2022-09-09T00:07:48;5.75;;;1.13;;
54909;SDS011;63189;51.240;9.964;2022-09-09T00:18:05;4.60;;;1.33;;
54909;SDS011;63189;51.240;9.964;2022-09-09T00:23:29;5.55;;;1.60;;
54909;SDS011;63189;51.240;9.964;2022-09-09T00:28:45;2.88;;;1.00;;
54909;SDS011;63189;51.240;9.964;2022-09-09T00:31:22;2.83;;;1.20;;
54909;SDS011;63189;51.240;9.964;2022-09-09T00:36:18;4.72;;;1.15;;
54909;SDS011;63189;51.240;9.964;2022-09-09T00:38:55;3.67;;;1.20;;
54909;SDS011;63189;51.240;9.964;2022-09-09T00:41:29;5.35;;;1.60;;
54909;SDS011;63189;51.240;9.964;2022-09-09T00:44:43;2.85;;;1.20;;
54909;SDS011;63189;51.240;9.964;2022-09-09T00:46:56;5.15;;;1.50;;
54909;SDS011;63189;51.240;9.964;2022-09-09T00:49:35;7.13;;;1.65;;
54909;SDS011;63189;51.240;9.964;2022-09-09T00:57:32;3.67;;;1.70;;
54909;SDS011;63189;51.240;9.964;2022-09-09T01:05:13;3.53;;;1.20;;
54909;SDS011;63189;51.240;9.964;2022-09-09T01:07:49;3.15;;;1.35;;
54909;SDS011;63189;51.240;9.964;2022-09-09T01:10:19;2.85;;;1.33;;
54909;SDS011;63189;51.240;9.964;2022-09-09T01:12:53;5.43;;;1.60;;
54909;SDS011;63189;51.240;9.964;2022-09-09T01:15:24;3.85;;;1.38;;
54909;SDS011;63189;51.240;9.964;2022-09-09T01:17:56;3.95;;;1.42;;
54909;SDS011;63189;51.240;9.964;2022-09-09T01:20:30;4.35;;;1.45;;
54909;SDS011;63189;51.240;9.964;2022-09-09T01:23:30;4.53;;;1.40;;
54909;SDS011;63189;51.240;9.964;2022-09-09T01:29:01;5.18;;;1.50;;
54909;SDS011;63189;51.240;9.964;2022-09-09T01:34:16;3.30;;;1.30;;
54909;SDS011;63189;51.240;9.964;2022-09-09T01:39:18;4.82;;;1.42;;
54909;SDS011;63189;51.240;9.964;2022-09-09T01:41:45;6.10;;;1.70;;
54909;SDS011;63189;51.240;9.964;2022-09-09T01:44:10;2.38;;;1.10;;
54909;SDS011;63189;51.240;9.964;2022-09-09T01:46:36;4.78;;;1.50;;
54909;SDS011;63189;51.240;9.964;2022-09-09T01:49:02;3.35;;;1.10;;
54909;SDS011;63189;51.240;9.964;2022-09-09T01:51:30;4.72;;;1.50;;
54909;SDS011;63189;51.240;9.964;2022-09-09T01:53:56;8.63;;;1.65;;
54909;SDS011;63189;51.240;9.964;2022-09-09T02:04:21;4.97;;;1.60;;
54909;SDS011;63189;51.240;9.964;2022-09-09T02:07:00;5.63;;;1.55;;
54909;SDS011;63189;51.240;9.964;2022-09-09T02:09:26;3.47;;;1.30;;
54909;SDS011;63189;51.240;9.964;2022-09-09T02:12:16;3.30;;;1.48;;
54909;SDS011;63189;51.240;9.964;2022-09-09T02:14:47;3.80;;;1.30;;
54909;SDS011;63189;51.240;9.964;2022-09-09T02:17:19;7.00;;;1.80;;
54909;SDS011;63189;51.240;9.964;2022-09-09T02:20:14;5.40;;;1.50;;
54909;SDS011;63189;51.240;9.964;2022-09-09T02:22:39;7.85;;;1.70;;
54909;SDS011;63189;51.240;9.964;2022-09-09T02:25:09;7.18;;;1.67;;
54909;SDS011;63189;51.240;9.964;2022-09-09T02:27:40;3.17;;;1.30;;
54909;SDS011;63189;51.240;9.964;2022-09-09T02:30:08;5.38;;;1.60;;
54909;SDS011;63189;51.240;9.964;2022-09-09T02:32:37;3.60;;;1.40;;
54909;SDS011;63189;51.240;9.964;2022-09-09T02:35:12;5.03;;;1.60;;
54909;SDS011;63189;51.240;9.964;2022-09-09T02:37:40;2.95;;;1.20;;
54909;SDS011;63189;51.240;9.964;2022-09-09T02:40:08;4.00;;;1.67;;
54909;SDS011;63189;51.240;9.964;2022-09-09T02:42:39;6.55;;;1.40;;
54909;SDS011;63189;51.240;9.964;2022-09-09T02:45:05;5.82;;;1.58;;
54909;SDS011;63189;51.240;9.964;2022-09-09T02:47:34;6.22;;;1.77;;
54909;SDS011;63189;51.240;9.964;2022-09-09T02:50:12;4.05;;;1.33;;
54909;SDS011;63189;51.240;9.964;2022-09-09T02:52:44;4.18;;;1.48;;
54909;SDS011;63189;51.240;9.964;2022-09-09T02:55:28;3.83;;;1.50;;
54909;SDS011;63189;51.240;9.964;2022-09-09T02:57:55;3.35;;;1.40;;
54909;SDS011;63189;51.240;9.964;2022-09-09T03:00:24;2.92;;;1.20;;
54909;SDS011;63189;51.240;9.964;2022-09-09T03:02:53;3.45;;;1.52;;
54909;SDS011;63189;51.240;9.964;2022-09-09T03:05:19;3.03;;;1.27;;
54909;SDS011;63189;51.240;9.964;2022-09-09T03:07:45;5.78;;;1.60;;
54909;SDS011;63189;51.240;9.964;2022-09-09T03:10:11;3.63;;;1.20;;
54909;SDS011;63189;51.240;9.964;2022-09-09T03:12:36;4.72;;;1.20;;
54909;SDS011;63189;51.240;9.964;2022-09-09T03:15:01;2.97;;;1.40;;
54909;SDS011;63189;51.240;9.964;2022-09-09T03:17:27;7.25;;;1.30;;
54909;SDS011;63189;51.240;9.964;2022-09-09T03:19:53;4.85;;;1.45;;
54909;SDS011;63189;51.240;9.964;2022-09-09T03:22:19;7.03;;;2.05;;
54909;SDS011;63189;51.240;9.964;2022-09-09T03:24:46;4.10;;;1.30;;
54909;SDS011;63189;51.240;9.964;2022-09-09T03:27:12;4.63;;;1.20;;
54909;SDS011;63189;51.240;9.964;2022-09-09T03:29:39;4.00;;;1.52;;
54909;SDS011;63189;51.240;9.964;2022-09-09T03:32:04;3.45;;;1.30;;
54909;SDS011;63189;51.240;9.964;2022-09-09T03:34:30;3.72;;;1.35;;
54909;SDS011;63189;51.240;9.964;2022-09-09T03:36:55;3.88;;;1.48;;
54909;SDS011;63189;51.240;9.964;2022-09-09T03:39:21;2.25;;;1.33;;
54909;SDS011;63189;51.240;9.964;2022-09-09T03:41:46;2.42;;;1.20;;
54909;SDS011;63189;51.240;9.964;2022-09-09T03:44:13;3.78;;;1.30;;
54909;SDS011;63189;51.240;9.964;2022-09-09T03:46:38;4.13;;;1.17;;
54909;SDS011;63189;51.240;9.964;2022-09-09T03:49:04;2.42;;;1.15;;
54909;SDS011;63189;51.240;9.964;2022-09-09T03:51:29;3.78;;;1.30;;
54909;SDS011;63189;51.240;9.964;2022-09-09T03:53:55;2.60;;;1.20;;
54909;SDS011;63189;51.240;9.964;2022-09-09T03:56:21;2.92;;;1.00;;
54909;SDS011;63189;51.240;9.964;2022-09-09T03:58:47;3.35;;;1.30;;
54909;SDS011;63189;51.240;9.964;2022-09-09T04:01:12;5.55;;;1.38;;
54909;SDS011;63189;51.240;9.964;2022-09-09T04:03:39;5.15;;;2.10;;
54909;SDS011;63189;51.240;9.964;2022-09-09T04:06:06;4.32;;;1.10;;
54909;SDS011;63189;51.240;9.964;2022-09-09T04:08:33;4.93;;;1.20;;
54909;SDS011;63189;51.240;9.964;2022-09-09T04:10:59;5.22;;;1.40;;
54909;SDS011;63189;51.240;9.964;2022-09-09T04:13:30;2.92;;;1.23;;
54909;SDS011;63189;51.240;9.964;2022-09-09T04:15:56;3.03;;;1.50;;
54909;SDS011;63189;51.240;9.964;2022-09-09T04:18:23;4.38;;;1.27;;
54909;SDS011;63189;51.240;9.964;2022-09-09T04:20:51;2.83;;;1.35;;
54909;SDS011;63189;51.240;9.964;2022-09-09T04:23:18;3.83;;;1.17;;
54909;SDS011;63189;51.240;9.964;2022-09-09T04:25:45;4.93;;;1.20;;
54909;SDS011;63189;51.240;9.964;2022-09-09T04:28:12;3.45;;;1.20;;
54909;SDS011;63189;51.240;9.964;2022-09-09T04:30:39;2.65;;;1.35;;
54909;SDS011;63189;51.240;9.964;2022-09-09T04:33:05;3.70;;;1.38;;
54909;SDS011;63189;51.240;9.964;2022-09-09T04:35:31;2.75;;;1.20;;
54909;SDS011;63189;51.240;9.964;2022-09-09T04:37:56;3.78;;;1.10;;
54909;SDS011;63189;51.240;9.964;2022-09-09T04:40:21;2.90;;;1.10;;
54909;SDS011;63189;51.240;9.964;2022-09-09T04:42:47;2.78;;;1.50;;
54909;SDS011;63189;51.240;9.964;2022-09-09T04:45:13;2.75;;;1.10;;
54909;SDS011;63189;51.240;9.964;2022-09-09T04:47:39;2.95;;;1.38;;
54909;SDS011;63189;51.240;9.964;2022-09-09T04:50:04;4.25;;;1.60;;
54909;SDS011;63189;51.240;9.964;2022-09-09T04:52:30;3.20;;;1.35;;
54909;SDS011;63189;51.240;9.964;2022-09-09T04:54:55;3.50;;;1.20;;
54909;SDS011;63189;51.240;9.964;2022-09-09T04:57:20;6.32;;;1.40;;
54909;SDS011;63189;51.240;9.964;2022-09-09T04:59:46;2.47;;;1.30;;
54909;SDS011;63189;51.240;9.964;2022-09-09T05:02:11;3.22;;;1.17;;
54909;SDS011;63189;51.240;9.964;2022-09-09T05:04:37;2.67;;;1.02;;
54909;SDS011;63189;51.240;9.964;2022-09-09T05:07:02;3.28;;;1.20;;
54909;SDS011;63189;51.240;9.964;2022-09-09T05:09:27;3.70;;;1.20;;
54909;SDS011;63189;51.240;9.964;2022-09-09T05:11:53;2.25;;;1.45;;
54909;SDS011;63189;51.240;9.964;2022-09-09T05:14:19;2.92;;;1.42;;
54909;SDS011;63189;51.240;9.964;2022-09-09T05:16:45;5.35;;;1.30;;
54909;SDS011;63189;51.240;9.964;2022-09-09T05:19:11;2.28;;;1.25;;
54909;SDS011;63189;51.240;9.964;2022-09-09T05:21:37;3.97;;;1.50;;
54909;SDS011;63189;51.240;9.964;2022-09-09T05:24:02;3.53;;;1.33;;
54909;SDS011;63189;51.240;9.964;2022-09-09T05:26:28;3.78;;;1.13;;
54909;SDS011;63189;51.240;9.964;2022-09-09T05:28:57;3.88;;;1.20;;
54909;SDS011;63189;51.240;9.964;2022-09-09T05:31:24;3.63;;;2.10;;
54909;SDS011;63189;51.240;9.964;2022-09-09T05:33:53;3.25;;;1.40;;
54909;SDS011;63189;51.240;9.964;2022-09-09T05:36:19;3.03;;;1.50;;
54909;SDS011;63189;51.240;9.964;2022-09-09T05:38:46;4.90;;;1.27;;
54909;SDS011;63189;51.240;9.964;2022-09-09T05:41:12;3.08;;;1.35;;
54909;SDS011;63189;51.240;9.964;2022-09-09T05:43:40;3.85;;;1.10;;
54909;SDS011;63189;51.240;9.964;2022-09-09T05:46:08;3.78;;;0.93;;
54909;SDS011;63189;51.240;9.964;2022-09-09T05:48:36;3.90;;;1.30;;
54909;SDS011;63189;51.240;9.964;2022-09-09T05:51:06;2.35;;;1.25;;
54909;SDS011;63189;51.240;9.964;2022-09-09T05:53:33;2.85;;;1.10;;
54909;SDS011;63189;51.240;9.964;2022-09-09T05:56:00;4.20;;;1.23;;
54909;SDS011;63189;51.240;9.964;2022-09-09T05:58:33;3.63;;;1.35;;
54909;SDS011;63189;51.240;9.964;2022-09-09T06:01:00;3.92;;;1.50;;
54909;SDS011;63189;51.240;9.964;2022-09-09T06:03:28;4.47;;;1.30;;
54909;SDS011;63189;51.240;9.964;2022-09-09T06:05:58;3.85;;;1.30;;
54909;SDS011;63189;51.240;9.964;2022-09-09T06:08:24;4.90;;;1.50;;
54909;SDS011;63189;51.240;9.964;2022-09-09T06:10:49;2.83;;;1.05;;
54909;SDS011;63189;51.240;9.964;2022-09-09T06:13:14;5.40;;;1.55;;
54909;SDS011;63189;51.240;9.964;2022-09-09T06:15:48;6.28;;;1.55;;
54909;SDS011;63189;51.240;9.964;2022-09-09T06:18:15;2.22;;;1.23;;
54909;SDS011;63189;51.240;9.964;2022-09-09T06:20:52;2.90;;;1.23;;
54909;SDS011;63189;51.240;9.964;2022-09-09T06:23:21;4.90;;;1.42;;
54909;SDS011;63189;51.240;9.964;2022-09-09T06:25:47;3.70;;;1.48;;
54909;SDS011;63189;51.240;9.964;2022-09-09T06:28:12;3.60;;;1.67;;
54909;SDS011;63189;51.240;9.964;2022-09-09T06:30:38;3.85;;;1.55;;
54909;SDS011;63189;51.240;9.964;2022-09-09T06:33:04;4.28;;;1.60;;
54909;SDS011;63189;51.240;9.964;2022-09-09T06:35:30;2.35;;;1.35;;
54909;SDS011;63189;51.240;9.964;2022-09-09T06:37:55;5.13;;;1.58;;
54909;SDS011;63189;51.240;9.964;2022-09-09T06:40:21;2.80;;;0.95;;
54909;SDS011;63189;51.240;9.964;2022-09-09T06:42:46;3.00;;;0.93;;
54909;SDS011;63189;51.240;9.964;2022-09-09T06:45:11;3.65;;;1.20;;
54909;SDS011;63189;51.240;9.964;2022-09-09T06:47:37;3.35;;;1.30;;
54909;SDS011;63189;51.240;9.964;2022-09-09T06:50:02;3.35;;;1.30;;
54909;SDS011;63189;51.240;9.964;2022-09-09T06:52:27;3.45;;;1.08;;
54909;SDS011;63189;51.240;9.964;2022-09-09T06:54:53;4.35;;;1.40;;
54909;SDS011;63189;51.240;9.964;2022-09-09T06:57:18;3.92;;;1.17;;
54909;SDS011;63189;51.240;9.964;2022-09-09T06:59:44;3.63;;;1.17;;
54909;SDS011;63189;51.240;9.964;2022-09-09T07:02:09;4.00;;;1.20;;
54909;SDS011;63189;51.240;9.964;2022-09-09T07:04:34;2.70;;;1.13;;
54909;SDS011;63189;51.240;9.964;2022-09-09T07:07:00;6.40;;;1.20;;
54909;SDS011;63189;51.240;9.964;2022-09-09T07:09:25;2.92;;;1.10;;
54909;SDS011;63189;51.240;9.964;2022-09-09T07:11:52;6.03;;;1.13;;
54909;SDS011;63189;51.240;9.964;2022-09-09T07:14:17;2.80;;;1.17;;
54909;SDS011;63189;51.240;9.964;2022-09-09T07:16:44;3.22;;;1.00;;
54909;SDS011;63189;51.240;9.964;2022-09-09T07:19:10;2.20;;;1.10;;
54909;SDS011;63189;51.240;9.964;2022-09-09T07:21:36;4.70;;;1.00;;
54909;SDS011;63189;51.240;9.964;2022-09-09T07:24:02;4.03;;;1.13;;
54909;SDS011;63189;51.240;9.964;2022-09-09T07:26:29;4.97;;;1.60;;
54909;SDS011;63189;51.240;9.964;2022-09-09T07:28:55;6.57;;;1.40;;
54909;SDS011;63189;51.240;9.964;2022-09-09T07:31:27;5.13;;;1.17;;
54909;SDS011;63189;51.240;9.964;2022-09-09T07:33:59;1.13;;;0.80;;
54909;SDS011;63189;51.240;9.964;2022-09-09T07:36:28;4.10;;;1.60;;
54909;SDS011;63189;51.240;9.964;2022-09-09T07:38:56;5.55;;;1.15;;
54909;SDS011;63189;51.240;9.964;2022-09-09T07:41:28;3.60;;;0.95;;
54909;SDS011;63189;51.240;9.964;2022-09-09T07:43:55;2.42;;;0.90;;
54909;SDS011;63189;51.240;9.964;2022-09-09T07:46:21;3.53;;;1.38;;
54909;SDS011;63189;51.240;9.964;2022-09-09T07:48:51;2.78;;;1.17;;
54909;SDS011;63189;51.240;9.964;2022-09-09T07:51:24;5.07;;;1.20;;
54909;SDS011;63189;51.240;9.964;2022-09-09T07:53:54;3.80;;;0.98;;
54909;SDS011;63189;51.240;9.964;2022-09-09T07:56:23;3.30;;;1.33;;
54909;SDS011;63189;51.240;9.964;2022-09-09T07:58:50;6.72;;;1.67;;
54909;SDS011;63189;51.240;9.964;2022-09-09T08:01:18;3.95;;;1.10;;
54909;SDS011;63189;51.240;9.964;2022-09-09T08:03:46;4.38;;;1.40;;
54909;SDS011;63189;51.240;9.964;2022-09-09T08:06:17;3.60;;;1.20;;
54909;SDS011;63189;51.240;9.964;2022-09-09T08:08:43;8.65;;;1.60;;
54909;SDS011;63189;51.240;9.964;2022-09-09T08:11:10;6.32;;;1.20;;
54909;SDS011;63189;51.240;9.964;2022-09-09T08:13:37;6.60;;;1.38;;
54909;SDS011;63189;51.240;9.964;2022-09-09T08:18:52;4.85;;;1.13;;
54909;SDS011;63189;51.240;9.964;2022-09-09T08:21:22;2.67;;;1.00;;
54909;SDS011;63189;51.240;9.964;2022-09-09T08:23:53;7.95;;;1.63;;
54909;SDS011;63189;51.240;9.964;2022-09-09T08:26:23;3.92;;;1.35;;
54909;SDS011;63189;51.240;9.964;2022-09-09T08:28:51;3.13;;;1.20;;
54909;SDS011;63189;51.240;9.964;2022-09-09T08:31:20;4.22;;;0.95;;
54909;SDS011;63189;51.240;9.964;2022-09-09T08:33:47;4.60;;;1.10;;
54909;SDS011;63189;51.240;9.964;2022-09-09T08:36:14;5.47;;;1.20;;
54909;SDS011;63189;51.240;9.964;2022-09-09T08:38:42;8.45;;;1.30;;
54909;SDS011;63189;51.240;9.964;2022-09-09T08:43:39;5.22;;;1.35;;
54909;SDS011;63189;51.240;9.964;2022-09-09T08:46:09;6.20;;;1.20;;
54909;SDS011;63189;51.240;9.964;2022-09-09T08:48:51;8.23;;;1.55;;
54909;SDS011;63189;51.240;9.964;2022-09-09T08:51:24;7.85;;;1.30;;
54909;SDS011;63189;51.240;9.964;2022-09-09T08:53:52;4.65;;;1.30;;
54909;SDS011;63189;51.240;9.964;2022-09-09T08:56:22;3.03;;;1.20;;
54909;SDS011;63189;51.240;9.964;2022-09-09T08:58:50;3.42;;;1.35;;
54909;SDS011;63189;51.240;9.964;2022-09-09T09:04:17;5.43;;;1.25;;
54909;SDS011;63189;51.240;9.964;2022-09-09T09:07:13;6.43;;;1.15;;
54909;SDS011;63189;51.240;9.964;2022-09-09T09:09:56;5.28;;;1.20;;
54909;SDS011;63189;51.240;9.964;2022-09-09T09:14:54;5.30;;;1.25;;
54909;SDS011;63189;51.240;9.964;2022-09-09T09:17:21;8.05;;;1.27;;
54909;SDS011;63189;51.240;9.964;2022-09-09T09:19:50;1.73;;;0.90;;
54909;SDS011;63189;51.240;9.964;2022-09-09T09:30:25;3.40;;;1.00;;
54909;SDS011;63189;51.240;9.964;2022-09-09T09:33:02;2.65;;;1.02;;
54909;SDS011;63189;51.240;9.964;2022-09-09T09:35:37;5.95;;;0.98;;
54909;SDS011;63189;51.240;9.964;2022-09-09T09:38:09;5.03;;;0.90;;
54909;SDS011;63189;51.240;9.964;2022-09-09T09:40:49;2.50;;;0.75;;
54909;SDS011;63189;51.240;9.964;2022-09-09T09:43:27;6.90;;;1.63;;
54909;SDS011;63189;51.240;9.964;2022-09-09T09:45:54;2.65;;;0.80;;
54909;SDS011;63189;51.240;9.964;2022-09-09T09:48:20;3.97;;;0.70;;
54909;SDS011;63189;51.240;9.964;2022-09-09T09:50:56;5.20;;;1.05;;
54909;SDS011;63189;51.240;9.964;2022-09-09T09:53:28;3.92;;;1.00;;
54909;SDS011;63189;51.240;9.964;2022-09-09T09:56:03;3.08;;;0.88;;
54909;SDS011;63189;51.240;9.964;2022-09-09T10:01:22;2.65;;;0.90;;
54909;SDS011;63189;51.240;9.964;2022-09-09T10:03:50;2.08;;;0.73;;
54909;SDS011;63189;51.240;9.964;2022-09-09T10:06:28;3.70;;;0.93;;
54909;SDS011;63189;51.240;9.964;2022-09-09T10:08:58;4.28;;;0.77;;
54909;SDS011;63189;51.240;9.964;2022-09-09T10:19:31;4.10;;;0.85;;
54909;SDS011;63189;51.240;9.964;2022-09-09T10:22:02;4.57;;;0.90;;
54909;SDS011;63189;51.240;9.964;2022-09-09T10:24:46;5.32;;;0.88;;
54909;SDS011;63189;51.240;9.964;2022-09-09T10:27:23;8.13;;;1.08;;
54909;SDS011;63189;51.240;9.964;2022-09-09T10:32:45;4.30;;;0.80;;
54909;SDS011;63189;51.240;9.964;2022-09-09T10:38:43;3.83;;;1.25;;
54909;SDS011;63189;51.240;9.964;2022-09-09T10:44:27;2.13;;;0.65;;
54909;SDS011;63189;51.240;9.964;2022-09-09T10:47:16;3.90;;;0.90;;
54909;SDS011;63189;51.240;9.964;2022-09-09T10:52:57;3.10;;;0.75;;
54909;SDS011;63189;51.240;9.964;2022-09-09T10:55:35;3.58;;;0.70;;
54909;SDS011;63189;51.240;9.964;2022-09-09T10:58:05;3.08;;;0.90;;
54909;SDS011;63189;51.240;9.964;2022-09-09T11:00:49;3.88;;;1.00;;
54909;SDS011;63189;51.240;9.964;2022-09-09T11:03:23;2.30;;;0.70;;
54909;SDS011;63189;51.240;9.964;2022-09-09T11:05:52;2.72;;;1.00;;
54909;SDS011;63189;51.240;9.964;2022-09-09T11:08:25;5.45;;;0.90;;
54909;SDS011;63189;51.240;9.964;2022-09-09T11:13:43;5.88;;;1.05;;
54909;SDS011;63189;51.240;9.964;2022-09-09T11:16:39;3.95;;;1.10;;
54909;SDS011;63189;51.240;9.964;2022-09-09T11:19:14;5.13;;;0.93;;
54909;SDS011;63189;51.240;9.964;2022-09-09T11:21:43;4.18;;;1.00;;
54909;SDS011;63189;51.240;9.964;2022-09-09T11:24:33;4.07;;;0.80;;
54909;SDS011;63189;51.240;9.964;2022-09-09T11:27:02;5.68;;;0.90;;
54909;SDS011;63189;51.240;9.964;2022-09-09T11:35:23;1.55;;;0.60;;
54909;SDS011;63189;51.240;9.964;2022-09-09T11:40:36;4.63;;;1.20;;
54909;SDS011;63189;51.240;9.964;2022-09-09T11:43:08;5.47;;;1.00;;
54909;SDS011;63189;51.240;9.964;2022-09-09T11:45:37;3.90;;;0.75;;
54909;SDS011;63189;51.240;9.964;2022-09-09T11:48:05;6.40;;;1.40;;
54909;SDS011;63189;51.240;9.964;2022-09-09T11:50:47;3.70;;;0.80;;
54909;SDS011;63189;51.240;9.964;2022-09-09T11:53:29;3.17;;;0.70;;
54909;SDS011;63189;51.240;9.964;2022-09-09T11:56:09;2.97;;;0.80;;
54909;SDS011;63189;51.240;9.964;2022-09-09T11:58:39;2.55;;;1.15;;
54909;SDS011;63189;51.240;9.964;2022-09-09T12:01:14;2.97;;;0.90;;
54909;SDS011;63189;51.240;9.964;2022-09-09T12:06:13;4.35;;;0.70;;
54909;SDS011;63189;51.240;9.964;2022-09-09T12:09:12;4.05;;;0.73;;
54909;SDS011;63189;51.240;9.964;2022-09-09T12:11:40;1.15;;;0.60;;
54909;SDS011;63189;51.240;9.964;2022-09-09T12:14:18;2.67;;;0.50;;
54909;SDS011;63189;51.240;9.964;2022-09-09T12:19:44;2.67;;;0.68;;
54909;SDS011;63189;51.240;9.964;2022-09-09T12:22:46;4.72;;;0.80;;
54909;SDS011;63189;51.240;9.964;2022-09-09T12:30:34;2.63;;;0.63;;
54909;SDS011;63189;51.240;9.964;2022-09-09T12:33:11;3.58;;;0.70;;
54909;SDS011;63189;51.240;9.964;2022-09-09T12:35:41;3.10;;;0.82;;
54909;SDS011;63189;51.240;9.964;2022-09-09T12:38:13;3.00;;;0.93;;
54909;SDS011;63189;51.240;9.964;2022-09-09T12:40:54;2.30;;;0.52;;
54909;SDS011;63189;51.240;9.964;2022-09-09T12:43:21;5.07;;;0.90;;
54909;SDS011;63189;51.240;9.964;2022-09-09T12:45:48;4.20;;;0.70;;
54909;SDS011;63189;51.240;9.964;2022-09-09T12:48:21;3.65;;;0.52;;
54909;SDS011;63189;51.240;9.964;2022-09-09T12:50:52;3.08;;;0.70;;
54909;SDS011;63189;51.240;9.964;2022-09-09T12:55:59;3.90;;;0.95;;
54909;SDS011;63189;51.240;9.964;2022-09-09T12:58:30;1.83;;;0.75;;
54909;SDS011;63189;51.240;9.964;2022-09-09T13:01:00;2.63;;;0.77;;
54909;SDS011;63189;51.240;9.964;2022-09-09T13:03:28;1.60;;;0.50;;
54909;SDS011;63189;51.240;9.964;2022-09-09T13:05:54;6.70;;;0.75;;
54909;SDS011;63189;51.240;9.964;2022-09-09T13:08:25;2.03;;;0.65;;
54909;SDS011;63189;51.240;9.964;2022-09-09T13:13:28;4.78;;;1.88;;
54909;SDS011;63189;51.240;9.964;2022-09-09T13:15:58;2.25;;;0.57;;
54909;SDS011;63189;51.240;9.964;2022-09-09T13:18:30;3.63;;;0.70;;
54909;SDS011;63189;51.240;9.964;2022-09-09T13:23:29;2.95;;;0.77;;
54909;SDS011;63189;51.240;9.964;2022-09-09T13:26:42;1.92;;;0.60;;
54909;SDS011;63189;51.240;9.964;2022-09-09T13:28:50;3.97;;;0.90;;
54909;SDS011;63189;51.240;9.964;2022-09-09T13:31:30;3.58;;;0.68;;
54909;SDS011;63189;51.240;9.964;2022-09-09T13:33:59;2.85;;;0.70;;
54909;SDS011;63189;51.240;9.964;2022-09-09T13:36:31;1.95;;;0.50;;
54909;SDS011;63189;51.240;9.964;2022-09-09T13:39:00;2.08;;;0.63;;
54909;SDS011;63189;51.240;9.964;2022-09-09T13:41:41;2.90;;;0.70;;
54909;SDS011;63189;51.240;9.964;2022-09-09T13:44:28;2.55;;;0.55;;
54909;SDS011;63189;51.240;9.964;2022-09-09T13:47:04;1.25;;;0.40;;
54909;SDS011;63189;51.240;9.964;2022-09-09T13:49:41;3.38;;;0.63;;
54909;SDS011;63189;51.240;9.964;2022-09-09T13:52:10;2.00;;;0.50;;
54909;SDS011;63189;51.240;9.964;2022-09-09T13:54:38;3.17;;;0.52;;
54909;SDS011;63189;51.240;9.964;2022-09-09T13:57:05;1.90;;;0.40;;
54909;SDS011;63189;51.240;9.964;2022-09-09T13:59:31;2.35;;;0.60;;
54909;SDS011;63189;51.240;9.964;2022-09-09T14:01:57;1.80;;;0.70;;
54909;SDS011;63189;51.240;9.964;2022-09-09T14:04:22;2.45;;;0.65;;
54909;SDS011;63189;51.240;9.964;2022-09-09T14:06:49;4.47;;;0.60;;
54909;SDS011;63189;51.240;9.964;2022-09-09T14:09:15;2.38;;;0.65;;
54909;SDS011;63189;51.240;9.964;2022-09-09T14:11:42;2.30;;;0.73;;
54909;SDS011;63189;51.240;9.964;2022-09-09T14:14:09;4.15;;;0.93;;
54909;SDS011;63189;51.240;9.964;2022-09-09T14:16:34;3.60;;;0.35;;
54909;SDS011;63189;51.240;9.964;2022-09-09T14:18:59;2.22;;;0.50;;
54909;SDS011;63189;51.240;9.964;2022-09-09T14:21:26;1.77;;;0.40;;
54909;SDS011;63189;51.240;9.964;2022-09-09T14:23:51;1.92;;;0.40;;
54909;SDS011;63189;51.240;9.964;2022-09-09T14:26:22;2.35;;;0.60;;
54909;SDS011;63189;51.240;9.964;2022-09-09T14:28:48;1.92;;;0.50;;
54909;SDS011;63189;51.240;9.964;2022-09-09T14:31:14;3.10;;;0.50;;
54909;SDS011;63189;51.240;9.964;2022-09-09T14:33:39;2.75;;;0.50;;
54909;SDS011;63189;51.240;9.964;2022-09-09T14:36:05;3.92;;;0.70;;
54909;SDS011;63189;51.240;9.964;2022-09-09T14:38:32;1.50;;;0.50;;
54909;SDS011;63189;51.240;9.964;2022-09-09T14:40:59;1.80;;;0.40;;
54909;SDS011;63189;51.240;9.964;2022-09-09T14:43:26;2.75;;;0.40;;
54909;SDS011;63189;51.240;9.964;2022-09-09T14:45:52;2.58;;;0.57;;
54909;SDS011;63189;51.240;9.964;2022-09-09T14:48:17;3.78;;;0.50;;
54909;SDS011;63189;51.240;9.964;2022-09-09T14:50:43;1.80;;;0.57;;
54909;SDS011;63189;51.240;9.964;2022-09-09T14:53:08;1.08;;;0.50;;
54909;SDS011;63189;51.240;9.964;2022-09-09T14:55:34;3.15;;;0.70;;
54909;SDS011;63189;51.240;9.964;2022-09-09T14:58:07;2.10;;;0.60;;
54909;SDS011;63189;51.240;9.964;2022-09-09T15:00:43;3.08;;;0.80;;
54909;SDS011;63189;51.240;9.964;2022-09-09T15:03:19;2.35;;;0.50;;
54909;SDS011;63189;51.240;9.964;2022-09-09T15:05:44;1.42;;;0.50;;
54909;SDS011;63189;51.240;9.964;2022-09-09T15:08:11;1.67;;;0.50;;
54909;SDS011;63189;51.240;9.964;2022-09-09T15:10:36;1.73;;;0.50;;
54909;SDS011;63189;51.240;9.964;2022-09-09T15:13:02;1.65;;;0.50;;
54909;SDS011;63189;51.240;9.964;2022-09-09T15:15:27;2.13;;;0.60;;
54909;SDS011;63189;51.240;9.964;2022-09-09T15:17:53;3.85;;;0.40;;
54909;SDS011;63189;51.240;9.964;2022-09-09T15:20:18;3.10;;;0.75;;
54909;SDS011;63189;51.240;9.964;2022-09-09T15:22:44;2.35;;;0.47;;
54909;SDS011;63189;51.240;9.964;2022-09-09T15:25:09;1.75;;;0.40;;
54909;SDS011;63189;51.240;9.964;2022-09-09T15:27:34;2.03;;;0.50;;
54909;SDS011;63189;51.240;9.964;2022-09-09T15:30:00;1.58;;;0.50;;
54909;SDS011;63189;51.240;9.964;2022-09-09T15:32:25;2.03;;;0.55;;
54909;SDS011;63189;51.240;9.964;2022-09-09T15:34:51;1.90;;;0.60;;
54909;SDS011;63189;51.240;9.964;2022-09-09T15:37:18;1.85;;;0.63;;
54909;SDS011;63189;51.240;9.964;2022-09-09T15:39:43;2.08;;;0.63;;
54909;SDS011;63189;51.240;9.964;2022-09-09T15:42:09;3.90;;;0.77;;
54909;SDS011;63189;51.240;9.964;2022-09-09T15:44:38;1.27;;;0.40;;
54909;SDS011;63189;51.240;9.964;2022-09-09T15:47:07;1.65;;;0.55;;
54909;SDS011;63189;51.240;9.964;2022-09-09T15:49:35;2.10;;;0.50;;
54909;SDS011;63189;51.240;9.964;2022-09-09T15:52:00;1.67;;;0.57;;
54909;SDS011;63189;51.240;9.964;2022-09-09T15:54:31;1.65;;;0.50;;
54909;SDS011;63189;51.240;9.964;2022-09-09T15:57:00;3.42;;;0.60;;
54909;SDS011;63189;51.240;9.964;2022-09-09T15:59:27;3.47;;;0.60;;
54909;SDS011;63189;51.240;9.964;2022-09-09T16:01:54;1.88;;;0.60;;
54909;SDS011;63189;51.240;9.964;2022-09-09T16:04:20;1.50;;;0.70;;
54909;SDS011;63189;51.240;9.964;2022-09-09T16:06:50;3.95;;;0.70;;
54909;SDS011;63189;51.240;9.964;2022-09-09T16:09:17;2.38;;;0.57;;
54909;SDS011;63189;51.240;9.964;2022-09-09T16:11:42;2.00;;;0.60;;
54909;SDS011;63189;51.240;9.964;2022-09-09T16:14:08;2.95;;;0.85;;
54909;SDS011;63189;51.240;9.964;2022-09-09T16:16:34;2.45;;;0.63;;
54909;SDS011;63189;51.240;9.964;2022-09-09T16:19:02;2.38;;;0.50;;
54909;SDS011;63189;51.240;9.964;2022-09-09T16:21:34;3.15;;;0.70;;
54909;SDS011;63189;51.240;9.964;2022-09-09T16:24:08;2.25;;;0.65;;
54909;SDS011;63189;51.240;9.964;2022-09-09T16:26:35;2.83;;;0.43;;
54909;SDS011;63189;51.240;9.964;2022-09-09T16:29:02;3.05;;;0.95;;
54909;SDS011;63189;51.240;9.964;2022-09-09T16:31:29;1.98;;;0.60;;
54909;SDS011;63189;51.240;9.964;2022-09-09T16:33:57;3.72;;;0.68;;
54909;SDS011;63189;51.240;9.964;2022-09-09T16:36:23;1.40;;;0.52;;
54909;SDS011;63189;51.240;9.964;2022-09-09T16:38:54;1.85;;;0.40;;
54909;SDS011;63189;51.240;9.964;2022-09-09T16:41:22;4.00;;;0.68;;
54909;SDS011;63189;51.240;9.964;2022-09-09T16:43:52;3.08;;;0.50;;
54909;SDS011;63189;51.240;9.964;2022-09-09T16:46:19;1.35;;;0.60;;
54909;SDS011;63189;51.240;9.964;2022-09-09T16:48:46;2.75;;;0.75;;
54909;SDS011;63189;51.240;9.964;2022-09-09T16:51:14;3.75;;;0.80;;
54909;SDS011;63189;51.240;9.964;2022-09-09T16:53:44;3.15;;;0.47;;
54909;SDS011;63189;51.240;9.964;2022-09-09T16:56:11;2.28;;;0.80;;
54909;SDS011;63189;51.240;9.964;2022-09-09T16:58:38;3.13;;;0.70;;
54909;SDS011;63189;51.240;9.964;2022-09-09T17:01:04;2.88;;;0.68;;